Time;durP1;ratioP1;P1;durP2;ratioP2;P2;SDS_P1;SDS_P2;PMS_P1;PMS_P2;Temp;Humidity;BMP_temperature;BMP_pressure;BME280_temperature;BME280_humidity;BME280_pressure;Samples;Min_cycle;Max_cycle;Signal;HPM_P1;HPM_P2
2022/04/23 00:00:10;;;;;;;9.38;6.15;;;9.50;1.00;;;;;;5054275;28;20040;-81
2022/04/23 00:02:36;;;;;;;11.32;4.95;;;9.40;1.00;;;;;;5049390;28;20437;-81
2022/04/23 00:05:02;;;;;;;8.73;5.25;;;9.50;1.00;;;;;;5048133;28;20030;-81
2022/04/23 00:07:27;;;;;;;11.02;5.70;;;9.50;1.00;;;;;;5049516;28;20033;-81
2022/04/23 00:09:53;;;;;;;13.25;6.53;;;9.50;1.00;;;;;;5040916;28;20041;-81
2022/04/23 00:12:19;;;;;;;9.65;5.22;;;9.50;1.00;;;;;;5049778;28;20377;-81
2022/04/23 00:14:45;;;;;;;10.45;5.95;;;9.40;1.00;;;;;;5039814;28;20037;-81
2022/04/23 00:17:10;;;;;;;10.88;5.88;;;9.40;1.00;;;;;;5041401;28;20022;-81
2022/04/23 00:19:36;;;;;;;6.85;4.82;;;9.30;1.00;;;;;;5047692;28;20366;-80
2022/04/23 00:22:02;;;;;;;11.55;5.82;;;9.30;1.00;;;;;;5047727;28;20026;-80
2022/04/23 00:24:27;;;;;;;9.60;6.20;;;9.20;1.00;;;;;;5045028;28;20029;-81
2022/04/23 00:26:53;;;;;;;6.32;4.15;;;9.10;5.60;;;;;;5032994;28;20026;-81
2022/04/23 00:29:18;;;;;;;13.35;6.35;;;9.10;8.90;;;;;;5034579;28;20034;-81
2022/04/23 00:31:44;;;;;;;10.02;4.70;;;9.00;13.30;;;;;;5025383;28;20022;-81
2022/04/23 00:34:10;;;;;;;11.63;6.40;;;8.90;18.80;;;;;;5023844;28;20022;-81
2022/04/23 00:36:36;;;;;;;12.73;6.57;;;8.90;27.40;;;;;;5023531;28;20075;-80
2022/04/23 00:39:02;;;;;;;8.40;5.35;;;8.90;33.20;;;;;;5035951;28;20022;-81
2022/04/23 00:41:46;;;;;;;12.55;6.40;;;8.80;38.40;;;;;;5041983;28;20025;-81
2022/04/23 00:44:13;;;;;;;13.30;6.63;;;8.80;44.90;;;;;;5041264;28;20030;-81
2022/04/23 00:46:39;;;;;;;10.55;5.28;;;8.80;48.70;;;;;;5042041;28;20079;-81
2022/04/23 00:49:06;;;;;;;10.68;7.25;;;8.80;50.60;;;;;;5041725;28;20063;-81
2022/04/23 00:51:35;;;;;;;12.70;6.45;;;8.70;68.10;;;;;;5042909;28;20030;-81
2022/04/23 00:54:07;;;;;;;7.82;5.25;;;8.80;55.90;;;;;;5024078;28;20030;-81
2022/04/23 00:56:34;;;;;;;11.50;7.88;;;8.70;45.80;;;;;;5033982;28;20025;-80
2022/04/23 00:59:02;;;;;;;9.35;6.88;;;8.80;60.10;;;;;;5038112;28;20030;-81
2022/04/23 01:01:28;;;;;;;12.45;7.88;;;8.70;53.10;;;;;;5028126;28;20041;-81
2022/04/23 01:03:53;;;;;;;12.73;8.15;;;8.70;69.40;;;;;;5041431;28;20025;-81
2022/04/23 01:06:20;;;;;;;11.23;7.25;;;8.80;49.40;;;;;;5053200;28;20017;-81
2022/04/23 01:08:46;;;;;;;12.48;7.60;;;8.90;56.10;;;;;;5041816;28;20089;-81
2022/04/23 01:11:12;;;;;;;12.10;7.80;;;8.80;59.40;;;;;;5034385;28;20026;-81
2022/04/23 01:13:38;;;;;;;8.73;6.32;;;8.70;77.50;;;;;;5044460;28;20053;-81
2022/04/23 01:16:07;;;;;;;10.23;7.40;;;8.60;81.80;;;;;;5041845;28;20041;-81
2022/04/23 01:18:34;;;;;;;9.50;6.15;;;8.50;90.20;;;;;;5012838;28;20037;-81
2022/04/23 01:21:01;;;;;;;13.45;7.97;;;8.50;93.80;;;;;;5039476;28;20389;-81
2022/04/23 01:23:27;;;;;;;12.38;7.22;;;8.50;96.00;;;;;;5046752;28;20032;-80
2022/04/23 01:25:54;;;;;;;10.95;7.45;;;8.50;89.00;;;;;;5034790;28;20050;-81
2022/04/23 01:28:23;;;;;;;14.00;7.10;;;8.60;92.40;;;;;;5026021;28;20098;-81
2022/04/23 01:30:50;;;;;;;9.18;6.35;;;8.60;88.90;;;;;;5043813;28;20044;-81
2022/04/23 01:33:16;;;;;;;11.50;7.50;;;8.50;90.10;;;;;;5043678;28;20071;-81
2022/04/23 01:35:44;;;;;;;11.93;7.15;;;8.60;92.00;;;;;;5036748;28;20024;-81
2022/04/23 01:38:10;;;;;;;12.80;7.90;;;8.50;97.40;;;;;;5026000;28;20032;-81
2022/04/23 01:40:36;;;;;;;9.50;6.57;;;8.60;92.40;;;;;;5036786;28;20037;-81
2022/04/23 01:43:02;;;;;;;11.85;7.32;;;8.50;93.50;;;;;;5040945;28;20366;-81
2022/04/23 01:45:27;;;;;;;14.75;8.05;;;8.40;99.20;;;;;;5044345;28;20806;-80
2022/04/23 01:47:53;;;;;;;12.45;8.50;;;8.50;97.00;;;;;;5034985;28;20034;-81
2022/04/23 01:50:18;;;;;;;10.73;6.40;;;8.60;92.70;;;;;;5045615;28;20064;-81
2022/04/23 01:52:44;;;;;;;13.73;8.80;;;8.50;93.40;;;;;;5045400;28;20087;-80
2022/04/23 01:55:10;;;;;;;14.85;8.07;;;8.60;95.00;;;;;;5018922;28;20093;-80
2022/04/23 01:57:36;;;;;;;11.95;8.60;;;8.50;91.00;;;;;;5045277;28;20017;-80
2022/04/23 02:00:04;;;;;;;9.85;4.20;;;8.60;75.20;;;;;;5045792;28;20037;-81
2022/04/23 02:02:30;;;;;;;13.30;7.90;;;8.50;93.30;;;;;;5045895;28;20086;-81
2022/04/23 02:04:58;;;;;;;15.75;8.20;;;8.40;95.20;;;;;;5051986;28;20029;-80
2022/04/23 02:07:24;;;;;;;15.60;7.53;;;8.50;98.40;;;;;;5045906;28;20431;-81
2022/04/23 02:09:50;;;;;;;12.95;7.97;;;8.50;96.60;;;;;;5049408;28;20045;-81
2022/04/23 02:12:16;;;;;;;11.60;7.70;;;8.40;96.50;;;;;;5041940;28;20025;-81
2022/04/23 02:14:41;;;;;;;15.93;9.48;;;8.40;99.90;;;;;;5019466;28;20400;-81
2022/04/23 02:17:09;;;;;;;16.25;8.85;;;8.30;99.90;;;;;;5036155;28;20033;-80
2022/04/23 02:19:35;;;;;;;15.13;9.18;;;8.30;99.90;;;;;;5035405;28;20060;-80
2022/04/23 02:22:00;;;;;;;15.85;8.93;;;8.20;99.90;;;;;;5036270;28;20018;-80
2022/04/23 02:24:26;;;;;;;13.85;9.23;;;8.20;99.90;;;;;;5034283;28;20021;-80
2022/04/23 02:26:51;;;;;;;14.60;8.20;;;8.30;99.90;;;;;;5040982;28;20445;-80
2022/04/23 02:29:17;;;;;;;19.35;10.35;;;8.30;99.90;;;;;;5040873;28;20033;-81
2022/04/23 02:31:43;;;;;;;17.35;9.27;;;8.30;99.90;;;;;;5040250;28;20072;-80
2022/04/23 02:34:08;;;;;;;10.98;7.03;;;8.20;99.90;;;;;;5007297;28;20018;-80
2022/04/23 02:36:35;;;;;;;13.63;8.68;;;8.20;99.90;;;;;;5039765;28;20025;-80
2022/04/23 02:39:01;;;;;;;15.35;9.27;;;8.20;99.90;;;;;;5047799;28;20108;-80
2022/04/23 02:41:27;;;;;;;11.68;8.25;;;8.20;99.90;;;;;;5039235;28;20076;-81
2022/04/23 02:43:53;;;;;;;16.27;9.75;;;8.20;99.90;;;;;;5038917;28;20032;-80
2022/04/23 02:46:18;;;;;;;15.30;9.63;;;8.20;99.90;;;;;;5039234;28;20025;-80
2022/04/23 02:48:44;;;;;;;14.32;9.05;;;8.10;99.90;;;;;;5039668;28;20868;-81
2022/04/23 02:51:16;;;;;;;15.77;9.93;;;8.00;99.90;;;;;;5038581;28;20037;-80
2022/04/23 02:53:43;;;;;;;16.08;9.70;;;8.10;99.90;;;;;;5039243;28;20075;-81
2022/04/23 02:56:13;;;;;;;15.77;9.02;;;8.10;99.90;;;;;;5038724;28;20049;-80
2022/04/23 02:58:41;;;;;;;13.85;9.68;;;8.10;99.90;;;;;;5041870;28;20036;-81
2022/04/23 03:01:09;;;;;;;18.70;9.48;;;8.10;99.90;;;;;;5042579;28;20087;-81
2022/04/23 03:03:40;;;;;;;14.77;9.30;;;8.10;99.90;;;;;;5039225;28;20417;-80
2022/04/23 03:06:07;;;;;;;15.63;9.63;;;8.20;99.90;;;;;;5028745;28;20075;-81
2022/04/23 03:08:35;;;;;;;14.70;9.75;;;8.20;99.90;;;;;;5042752;28;20024;-81
2022/04/23 03:11:01;;;;;;;13.77;9.35;;;8.20;99.90;;;;;;5041851;28;20061;-81
2022/04/23 03:13:26;;;;;;;14.25;9.77;;;8.30;99.90;;;;;;5024317;28;20025;-81
2022/04/23 03:15:52;;;;;;;12.73;8.57;;;8.30;99.90;;;;;;5041320;28;20041;-80
2022/04/23 03:18:18;;;;;;;17.05;10.65;;;8.30;99.90;;;;;;5042254;28;20025;-80
2022/04/23 03:20:45;;;;;;;9.70;6.32;;;8.30;99.90;;;;;;5049365;28;20081;-80
2022/04/23 03:23:13;;;;;;;16.25;10.65;;;8.30;99.90;;;;;;5058250;28;20017;-80
2022/04/23 03:25:41;;;;;;;17.55;10.70;;;8.20;99.90;;;;;;5032511;28;20029;-81
2022/04/23 03:28:06;;;;;;;19.85;11.30;;;8.30;99.90;;;;;;5025242;28;20026;-81
2022/04/23 03:30:32;;;;;;;14.30;9.65;;;8.30;99.90;;;;;;5039699;28;20064;-81
2022/04/23 03:32:59;;;;;;;16.42;10.95;;;8.30;99.90;;;;;;5047253;28;20022;-81
2022/04/23 03:35:26;;;;;;;17.30;10.82;;;8.20;99.90;;;;;;5054175;28;20013;-81
2022/04/23 03:37:52;;;;;;;13.73;9.50;;;8.10;99.90;;;;;;5043854;28;20037;-81
2022/04/23 03:40:18;;;;;;;17.95;11.18;;;8.10;99.90;;;;;;5041734;28;20033;-81
2022/04/23 03:42:48;;;;;;;16.73;10.38;;;8.10;99.90;;;;;;5041269;28;20030;-80
2022/04/23 03:45:14;;;;;;;;;;;8.00;99.90;;;;;;5043005;28;20049;-81
2022/04/23 03:47:44;;;;;;;19.58;11.07;;;8.00;99.90;;;;;;5053244;28;19916;-81
2022/04/23 03:50:10;;;;;;;;;;;8.00;99.90;;;;;;5053777;28;20045;-81
2022/04/23 03:52:35;;;;;;;12.77;7.20;;;8.00;99.90;;;;;;5054121;28;19927;-81
2022/04/23 03:55:04;;;;;;;16.25;11.45;;;8.00;99.90;;;;;;5055598;28;20020;-81
2022/04/23 03:57:31;;;;;;;17.67;11.18;;;8.00;99.90;;;;;;5039137;28;20059;-81
2022/04/23 03:59:56;;;;;;;15.13;10.00;;;8.00;99.90;;;;;;5056416;28;20057;-81
2022/04/23 04:02:22;;;;;;;14.82;10.23;;;8.00;99.90;;;;;;5050537;28;20049;-81
2022/04/23 04:04:48;;;;;;;19.83;10.55;;;8.00;99.90;;;;;;5034742;28;20084;-82
2022/04/23 04:07:18;;;;;;;17.40;10.23;;;8.10;99.90;;;;;;5038732;28;20545;-81
2022/04/23 04:09:43;;;;;;;16.05;10.40;;;8.00;99.90;;;;;;5053767;28;20022;-81
2022/04/23 04:12:10;;;;;;;17.95;11.73;;;8.00;99.90;;;;;;5046389;28;20014;-82
2022/04/23 04:14:36;;;;;;;16.85;10.35;;;8.00;99.90;;;;;;5059900;28;20045;-81
2022/04/23 04:17:05;;;;;;;15.20;10.38;;;8.00;99.90;;;;;;5053477;28;20033;-81
2022/04/23 04:19:34;;;;;;;15.82;10.07;;;8.00;99.90;;;;;;5050994;28;20006;-81
2022/04/23 04:22:03;;;;;;;17.75;11.52;;;7.90;99.90;;;;;;5052040;28;20024;-81
2022/04/23 04:24:29;;;;;;;19.17;11.27;;;8.00;99.90;;;;;;5065543;28;20080;-81
2022/04/23 04:26:55;;;;;;;12.98;9.35;;;8.00;99.90;;;;;;5018991;28;20527;-81
2022/04/23 04:29:21;;;;;;;15.93;8.93;;;8.00;99.90;;;;;;5048080;28;20045;-82
2022/04/23 04:31:49;;;;;;;15.10;8.80;;;8.00;99.90;;;;;;5056551;28;20045;-81
2022/04/23 04:34:32;;;;;;;13.68;8.85;;;8.10;99.90;;;;;;5047790;28;20033;-81
2022/04/23 04:37:02;;;;;;;16.83;10.65;;;8.10;99.90;;;;;;5036672;28;20026;-81
2022/04/23 04:39:28;;;;;;;14.95;8.63;;;8.10;99.90;;;;;;5038240;28;20025;-81
2022/04/23 04:41:53;;;;;;;17.23;10.57;;;8.00;99.90;;;;;;5028817;28;20034;-81
2022/04/23 04:44:19;;;;;;;21.08;10.02;;;8.10;99.90;;;;;;5016323;28;20104;-81
2022/04/23 04:47:10;;;;;;;16.17;10.93;;;8.10;99.90;;;;;;5009130;28;20021;-81
2022/04/23 04:49:36;;;;;;;13.52;9.55;;;8.20;99.90;;;;;;5016027;28;20034;-81
2022/04/23 04:52:02;;;;;;;16.95;10.43;;;8.10;99.90;;;;;;5011881;28;20048;-81
2022/04/23 04:57:50;;;;;;;15.23;9.48;;;8.10;99.90;;;;;;5035038;28;20546;-81
2022/04/23 05:00:18;;;;;;;17.40;11.40;;;8.20;99.90;;;;;;5030694;28;20018;-80
2022/04/23 05:02:43;;;;;;;15.45;9.43;;;8.20;99.90;;;;;;5040562;28;20021;-80
2022/04/23 05:05:09;;;;;;;15.77;9.45;;;8.30;99.90;;;;;;5044463;28;20026;-80
2022/04/23 05:07:36;;;;;;;14.60;9.57;;;8.30;98.30;;;;;;5036637;28;20025;-80
2022/04/23 05:10:03;;;;;;;15.68;10.27;;;8.30;96.20;;;;;;5045811;28;20036;-81
2022/04/23 05:12:30;;;;;;;13.75;9.15;;;8.30;97.70;;;;;;5029788;28;20029;-80
2022/04/23 05:14:55;;;;;;;15.80;9.85;;;8.40;97.60;;;;;;5048462;28;20093;-81
2022/04/23 05:17:21;;;;;;;9.40;6.95;;;8.40;90.60;;;;;;5039222;28;20476;-80
2022/04/23 05:19:47;;;;;;;16.17;9.85;;;8.50;73.20;;;;;;5037770;28;20025;-80
2022/04/23 05:22:13;;;;;;;14.63;9.75;;;8.50;64.90;;;;;;5038917;28;20073;-80
2022/04/23 05:24:38;;;;;;;13.48;9.05;;;8.60;55.30;;;;;;5037401;28;20029;-81
2022/04/23 05:27:04;;;;;;;13.18;8.48;;;8.70;32.80;;;;;;5036548;28;20038;-81
2022/04/23 05:29:36;;;;;;;11.48;7.80;;;8.70;28.70;;;;;;5036583;28;20099;-81
2022/04/23 05:32:01;;;;;;;15.70;11.00;;;9.40;8.30;;;;;;5037640;28;20029;-81
2022/04/23 05:34:28;;;;;;;15.18;8.75;;;11.60;1.00;;;;;;5016902;28;20079;-80
2022/04/23 05:36:54;;;;;;;13.95;9.68;;;13.10;99.90;;;;;;5015835;28;20037;-80
2022/04/23 05:39:19;;;;;;;13.00;8.20;;;13.60;99.90;;;;;;5032592;28;20089;-81
2022/04/23 05:41:51;;;;;;;11.65;8.05;;;14.10;99.90;;;;;;5015012;28;20025;-80
2022/04/23 05:44:17;;;;;;;14.32;8.90;;;14.50;99.90;;;;;;5027359;28;20036;-81
2022/04/23 05:46:42;;;;;;;10.30;8.13;;;14.00;99.90;;;;;;5034587;28;20018;-81
2022/04/23 05:49:09;;;;;;;12.65;8.65;;;15.20;99.90;;;;;;5031689;28;20034;-81
2022/04/23 05:51:34;;;;;;;10.43;7.43;;;14.80;99.90;;;;;;5033827;28;20357;-81
2022/04/23 05:54:00;;;;;;;11.60;8.43;;;14.90;99.90;;;;;;5010056;28;20032;-81
2022/04/23 05:56:25;;;;;;;11.18;8.40;;;14.70;99.90;;;;;;5020253;28;20013;-80
2022/04/23 05:58:51;;;;;;;13.57;8.77;;;12.50;99.90;;;;;;5033609;28;20058;-80
2022/04/23 06:01:17;;;;;;;12.75;8.73;;;11.10;1.00;;;;;;5040102;28;20037;-81
2022/04/23 06:03:42;;;;;;;12.10;8.15;;;11.00;1.00;;;;;;5016443;28;20113;-81
2022/04/23 06:06:08;;;;;;;11.45;7.93;;;10.80;1.00;;;;;;5034469;28;20049;-81
2022/04/23 06:08:33;;;;;;;13.00;8.57;;;10.80;1.00;;;;;;5033734;28;20104;-81
2022/04/23 06:10:59;;;;;;;11.60;9.20;;;10.50;1.00;;;;;;5034878;28;20129;-81
2022/04/23 06:13:25;;;;;;;14.98;11.68;;;10.50;1.00;;;;;;5034014;28;20064;-81
2022/04/23 06:15:51;;;;;;;11.35;8.73;;;10.50;1.00;;;;;;5033339;28;20083;-80
2022/04/23 06:18:16;;;;;;;9.00;6.60;;;10.50;1.00;;;;;;5032629;28;20022;-81
2022/04/23 06:20:42;;;;;;;7.65;6.45;;;10.60;1.00;;;;;;5041404;28;20033;-82
2022/04/23 06:23:07;;;;;;;9.70;7.22;;;10.70;1.00;;;;;;5035452;28;20078;-81
2022/04/23 06:25:33;;;;;;;6.90;5.55;;;10.70;1.00;;;;;;5032562;28;20053;-78
2022/04/23 06:27:58;;;;;;;13.57;8.93;;;10.80;1.00;;;;;;5032280;28;20028;-78
2022/04/23 06:30:24;;;;;;;12.27;8.00;;;10.70;1.00;;;;;;5014854;28;20045;-78
2022/04/23 06:32:50;;;;;;;14.52;8.88;;;11.30;1.00;;;;;;5012125;28;20018;-78
2022/04/23 06:35:16;;;;;;;13.77;8.63;;;14.70;99.90;;;;;;5008966;28;20052;-79
2022/04/23 06:37:42;;;;;;;11.70;8.70;;;16.00;99.90;;;;;;5044168;28;20013;-77
2022/04/23 06:40:11;;;;;;;10.68;7.50;;;16.90;99.90;;;;;;5053330;28;20307;-78
2022/04/23 06:42:38;;;;;;;8.52;6.65;;;17.20;99.90;;;;;;5051940;28;20063;-79
2022/04/23 06:45:05;;;;;;;10.10;7.25;;;17.80;99.90;;;;;;5054177;28;20026;-79
2022/04/23 06:47:30;;;;;;;10.13;8.15;;;17.50;99.90;;;;;;5054620;28;20001;-79
2022/04/23 06:49:58;;;;;;;10.73;7.55;;;18.00;99.90;;;;;;5054722;28;20076;-79
2022/04/23 06:52:23;;;;;;;10.18;8.40;;;18.20;99.90;;;;;;5054429;28;20013;-79
2022/04/23 06:54:49;;;;;;;9.05;6.40;;;18.00;99.90;;;;;;5053557;28;20033;-79
2022/04/23 06:57:14;;;;;;;10.65;8.45;;;18.50;99.90;;;;;;5053230;28;20417;-79
2022/04/23 06:59:40;;;;;;;11.20;9.00;;;18.30;99.90;;;;;;5053140;28;20017;-79
2022/04/23 07:02:06;;;;;;;9.68;7.88;;;18.20;99.90;;;;;;5053810;28;20030;-79
2022/04/23 07:04:31;;;;;;;11.32;9.45;;;17.70;99.90;;;;;;5040705;28;20064;-82
2022/04/23 07:06:57;;;;;;;10.15;7.85;;;19.80;99.90;;;;;;5038224;28;20025;-80
2022/04/23 07:09:22;;;;;;;11.25;7.93;;;19.70;99.90;;;;;;5028249;28;20421;-80
2022/04/23 07:11:48;;;;;;;10.60;7.53;;;19.20;99.90;;;;;;5033063;28;20346;-80
2022/04/23 07:14:14;;;;;;;11.50;8.63;;;19.20;99.90;;;;;;5035120;28;20041;-80
2022/04/23 07:16:40;;;;;;;11.73;8.75;;;20.20;99.90;;;;;;5040792;28;20013;-81
2022/04/23 07:19:07;;;;;;;9.60;8.60;;;19.80;99.90;;;;;;5034133;28;20017;-80
2022/04/23 07:21:34;;;;;;;11.18;9.02;;;19.60;99.90;;;;;;5036948;28;20010;-80
2022/04/23 07:24:03;;;;;;;10.77;7.75;;;19.50;99.90;;;;;;5044388;28;20049;-80
2022/04/23 07:26:29;;;;;;;11.40;7.93;;;19.00;99.90;;;;;;5042605;28;20040;-80
2022/04/23 07:28:55;;;;;;;8.07;7.03;;;20.00;99.90;;;;;;5025794;28;20449;-80
2022/04/23 07:31:20;;;;;;;9.18;6.95;;;18.90;99.90;;;;;;5031908;28;20026;-80
2022/04/23 07:39:14;;;;;;;10.57;8.25;;;20.20;99.90;;;;;;5042443;28;20048;-80
2022/04/23 07:41:40;;;;;;;9.77;7.93;;;19.90;99.90;;;;;;5014338;28;20022;-80
2022/04/23 07:44:05;;;;;;;8.98;7.50;;;19.80;99.90;;;;;;5023672;28;20025;-80
2022/04/23 07:46:31;;;;;;;9.95;7.93;;;21.50;99.90;;;;;;5042565;28;20025;-80
2022/04/23 07:48:58;;;;;;;12.13;8.45;;;20.60;99.90;;;;;;5043373;28;20021;-80
2022/04/23 07:51:26;;;;;;;11.68;8.70;;;20.70;99.90;;;;;;5044659;28;20017;-80
2022/04/23 07:53:55;;;;;;;9.52;7.47;;;18.70;99.90;;;;;;5043701;28;20030;-80
2022/04/23 07:56:22;;;;;;;11.73;8.98;;;19.30;99.90;;;;;;5046511;28;20053;-80
2022/04/23 07:58:47;;;;;;;9.52;7.65;;;20.60;99.90;;;;;;5050325;28;20049;-80
2022/04/23 08:01:13;;;;;;;8.73;7.47;;;21.80;99.90;;;;;;5048094;28;20447;-80
2022/04/23 08:03:38;;;;;;;10.52;8.68;;;20.50;99.90;;;;;;5047989;28;20056;-80
2022/04/23 08:06:04;;;;;;;8.63;7.65;;;20.80;99.90;;;;;;5035501;28;20056;-80
2022/04/23 08:08:30;;;;;;;11.15;9.20;;;20.40;99.90;;;;;;5043098;28;20055;-80
2022/04/23 08:10:55;;;;;;;12.32;8.63;;;21.10;99.90;;;;;;5036597;28;20091;-80
2022/04/23 08:13:21;;;;;;;9.18;7.10;;;20.20;99.90;;;;;;5046995;28;20030;-80
2022/04/23 08:15:46;;;;;;;10.57;9.48;;;20.00;99.90;;;;;;5041870;28;20036;-80
2022/04/23 08:18:12;;;;;;;11.98;9.25;;;20.40;99.90;;;;;;5043952;28;20033;-80
2022/04/23 08:20:41;;;;;;;10.10;7.53;;;20.20;99.90;;;;;;5039352;28;20021;-80
2022/04/23 08:23:10;;;;;;;11.70;8.87;;;21.40;99.90;;;;;;5024599;28;20038;-80
2022/04/23 08:25:35;;;;;;;10.93;8.50;;;21.90;99.90;;;;;;5008682;28;20045;-80
2022/04/23 08:30:46;;;;;;;10.70;7.63;;;21.70;99.90;;;;;;5037885;28;20168;-80
2022/04/23 08:33:12;;;;;;;10.35;6.85;;;21.60;99.90;;;;;;5038565;28;20021;-80
2022/04/23 08:35:38;;;;;;;8.13;6.28;;;22.20;99.90;;;;;;5032477;28;20022;-81
2022/04/23 08:38:07;;;;;;;10.13;8.25;;;22.20;99.90;;;;;;5028352;28;20535;-80
2022/04/23 08:40:41;;;;;;;9.55;7.95;;;21.90;99.90;;;;;;5037255;28;20029;-80
2022/04/23 08:43:07;;;;;;;9.15;6.95;;;21.20;99.90;;;;;;5037585;28;20104;-81
2022/04/23 08:45:36;;;;;;;10.15;7.00;;;19.80;99.90;;;;;;5041429;28;20021;-80
2022/04/23 08:48:09;;;;;;;13.38;8.93;;;20.20;99.90;;;;;;5025194;28;20026;-80
2022/04/23 08:50:36;;;;;;;10.05;8.75;;;20.30;99.90;;;;;;5034148;28;20025;-79
2022/04/23 08:53:07;;;;;;;9.30;7.75;;;21.20;99.90;;;;;;5038899;28;20024;-79
2022/04/23 08:55:33;;;;;;;8.27;6.45;;;21.00;99.90;;;;;;5040709;28;20026;-80
2022/04/23 08:58:00;;;;;;;9.50;8.48;;;20.90;99.90;;;;;;5035731;28;20034;-80
2022/04/23 09:00:26;;;;;;;10.65;8.38;;;20.30;99.90;;;;;;5040145;28;20022;-79
2022/04/23 09:02:51;;;;;;;10.15;7.82;;;22.40;99.90;;;;;;5038331;28;20112;-79
2022/04/23 09:05:18;;;;;;;9.40;8.23;;;23.10;99.90;;;;;;5041784;28;20488;-79
2022/04/23 09:07:56;;;;;;;10.50;9.13;;;22.20;99.90;;;;;;5038991;28;20028;-79
2022/04/23 09:10:57;;;;;;;10.93;9.02;;;22.00;99.90;;;;;;5037422;28;20033;-79
2022/04/23 09:13:30;;;;;;;12.93;9.38;;;21.10;99.90;;;;;;5030800;28;20036;-80
2022/04/23 09:24:45;;;;;;;10.50;8.23;;;22.50;99.90;;;;;;5027144;28;20175;-79
2022/04/23 09:27:11;;;;;;;11.55;9.13;;;21.20;99.90;;;;;;5039652;28;20045;-80
2022/04/23 09:29:37;;;;;;;10.60;9.50;;;21.10;99.90;;;;;;5037269;28;20040;-80
2022/04/23 09:32:09;;;;;;;9.25;8.30;;;22.30;99.90;;;;;;5037937;28;20464;-80
2022/04/23 09:34:35;;;;;;;10.27;9.27;;;21.00;99.90;;;;;;5036972;28;20053;-80
2022/04/23 09:37:00;;;;;;;9.50;8.05;;;21.90;99.90;;;;;;5031590;28;20478;-80
2022/04/23 09:39:36;;;;;;;11.07;9.20;;;21.70;99.90;;;;;;5026732;28;20033;-80
2022/04/23 09:42:15;;;;;;;10.73;8.93;;;24.00;99.90;;;;;;5016671;28;20126;-81
2022/04/23 09:44:42;;;;;;;9.57;8.18;;;22.40;99.90;;;;;;5034738;28;20021;-80
2022/04/23 09:47:07;;;;;;;11.75;8.82;;;21.90;99.90;;;;;;5014693;28;20029;-81
2022/04/23 09:49:34;;;;;;;10.90;9.65;;;23.10;99.90;;;;;;5031794;28;20740;-80
2022/04/23 09:52:09;;;;;;;10.95;9.05;;;22.30;99.90;;;;;;5034147;28;20040;-80
2022/04/23 09:54:36;;;;;;;10.85;9.40;;;21.40;99.90;;;;;;5034803;28;20041;-80
2022/04/23 09:57:03;;;;;;;11.00;8.60;;;22.20;99.90;;;;;;5017630;28;20025;-80
2022/04/23 09:59:29;;;;;;;11.70;9.20;;;22.50;99.90;;;;;;5033219;28;20032;-80
2022/04/23 10:01:56;;;;;;;9.63;8.63;;;22.80;99.90;;;;;;5033688;28;20033;-80
2022/04/23 10:04:31;;;;;;;10.43;9.27;;;21.50;99.90;;;;;;5033758;28;20174;-79
2022/04/23 10:07:00;;;;;;;9.80;8.75;;;22.40;99.90;;;;;;5036409;28;20029;-80
2022/04/23 10:09:27;;;;;;;9.70;8.13;;;21.60;99.90;;;;;;5033803;28;20136;-79
2022/04/23 10:12:02;;;;;;;11.00;9.70;;;21.90;99.90;;;;;;5040097;28;20026;-79
2022/04/23 10:14:36;;;;;;;11.25;9.57;;;21.20;99.90;;;;;;5039662;28;20504;-79
2022/04/23 10:17:05;;;;;;;11.93;9.30;;;21.60;99.90;;;;;;5020706;28;20029;-79
2022/04/23 10:19:32;;;;;;;11.10;9.55;;;23.30;99.90;;;;;;5033846;28;20048;-77
2022/04/23 10:22:22;;;;;;;11.63;9.75;;;22.60;99.90;;;;;;5032245;28;20037;-78
2022/04/23 10:25:22;;;;;;;12.80;9.38;;;22.70;99.90;;;;;;5040315;28;20033;-77
2022/04/23 10:27:49;;;;;;;10.77;8.85;;;22.90;99.90;;;;;;5020461;28;20126;-77
2022/04/23 10:30:15;;;;;;;9.18;6.78;;;22.50;99.90;;;;;;5038966;28;20064;-77
2022/04/23 10:32:42;;;;;;;9.40;8.38;;;22.10;99.90;;;;;;5035545;28;20477;-76
2022/04/23 10:35:19;;;;;;;8.57;7.70;;;22.60;99.90;;;;;;5035716;28;20333;-76
2022/04/23 10:37:49;;;;;;;10.57;8.75;;;21.90;99.90;;;;;;5034783;28;20025;-77
2022/04/23 10:40:19;;;;;;;10.60;8.43;;;21.60;99.90;;;;;;5033908;28;20040;-77
2022/04/23 10:43:06;;;;;;;13.38;9.60;;;21.80;99.90;;;;;;5034748;28;20083;-79
2022/04/23 10:45:33;;;;;;;10.70;8.63;;;22.60;99.90;;;;;;5038201;28;20022;-80
2022/04/23 10:48:24;;;;;;;9.77;7.70;;;23.70;99.90;;;;;;5041884;28;20040;-79
2022/04/23 10:51:02;;;;;;;11.50;7.63;;;22.80;99.90;;;;;;5028271;28;20039;-78
2022/04/23 10:53:40;;;;;;;12.10;10.05;;;22.30;99.90;;;;;;5045895;28;20028;-78
2022/04/23 10:56:07;;;;;;;13.35;9.40;;;22.20;99.90;;;;;;5036564;28;20017;-78
2022/04/23 10:58:33;;;;;;;11.13;8.85;;;22.80;99.90;;;;;;5041532;28;20064;-80
2022/04/23 11:01:22;;;;;;;9.00;7.32;;;21.00;99.90;;;;;;5036603;28;20076;-80
2022/04/23 11:04:07;;;;;;;11.63;8.35;;;20.10;99.90;;;;;;5018557;28;20069;-80
2022/04/23 11:12:36;;;;;;;11.45;9.02;;;18.10;99.90;;;;;;5031630;28;20033;-80
2022/04/23 11:15:15;;;;;;;10.65;8.55;;;17.60;99.90;;;;;;5023934;28;20101;-80
2022/04/23 11:17:46;;;;;;;9.15;8.10;;;17.50;99.90;;;;;;5026744;28;20018;-80
2022/04/23 11:20:13;;;;;;;12.57;9.85;;;17.60;99.90;;;;;;5021670;28;20062;-80
2022/04/23 11:22:40;;;;;;;10.88;9.73;;;17.30;99.90;;;;;;5004755;28;20032;-79
2022/04/23 11:25:06;;;;;;;10.68;8.48;;;17.50;99.90;;;;;;5014940;28;20034;-80
2022/04/23 11:27:36;;;;;;;11.48;9.95;;;17.80;99.90;;;;;;5006625;28;20041;-80
2022/04/23 11:30:04;;;;;;;9.15;7.85;;;17.90;99.90;;;;;;5022561;28;20449;-79
2022/04/23 11:32:31;;;;;;;13.68;8.50;;;17.40;99.90;;;;;;5019871;28;20026;-79
2022/04/23 11:35:07;;;;;;;8.98;7.65;;;17.70;99.90;;;;;;5022750;28;20022;-79
2022/04/23 11:37:35;;;;;;;11.57;9.82;;;17.40;99.90;;;;;;5028158;28;20102;-80
2022/04/23 11:40:08;;;;;;;12.27;9.48;;;17.30;99.90;;;;;;5017775;28;20095;-80
2022/04/23 11:42:44;;;;;;;10.35;8.73;;;17.30;99.90;;;;;;5017454;28;20026;-80
2022/04/23 11:45:12;;;;;;;15.38;9.50;;;17.40;99.90;;;;;;5015134;28;20030;-79
2022/04/23 11:47:37;;;;;;;10.35;8.50;;;17.10;99.90;;;;;;4997721;28;20052;-79
2022/04/23 11:50:13;;;;;;;13.38;10.68;;;17.10;99.90;;;;;;5015318;28;20462;-78
2022/04/23 11:52:43;;;;;;;11.43;8.68;;;17.40;99.90;;;;;;5015757;28;20033;-79
2022/04/23 11:55:21;;;;;;;11.10;8.80;;;17.30;99.90;;;;;;5016040;28;20061;-79
2022/04/23 11:58:00;;;;;;;10.90;7.95;;;17.40;99.90;;;;;;5007276;28;20091;-79
2022/04/23 12:00:27;;;;;;;10.05;8.90;;;17.60;99.90;;;;;;5016046;28;20030;-79
2022/04/23 12:02:53;;;;;;;10.02;7.25;;;17.00;99.90;;;;;;5015940;28;20362;-78
2022/04/23 12:05:30;;;;;;;13.25;9.45;;;17.00;99.90;;;;;;4998583;28;20041;-79
2022/04/23 12:07:57;;;;;;;13.07;9.07;;;17.30;99.90;;;;;;5015856;28;20101;-79
2022/04/23 12:10:31;;;;;;;12.90;10.07;;;17.50;99.90;;;;;;5015864;28;20531;-79
2022/04/23 12:13:05;;;;;;;10.60;7.50;;;17.80;99.90;;;;;;5015690;28;20037;-79
2022/04/23 12:15:31;;;;;;;9.73;8.80;;;17.40;99.90;;;;;;5011687;28;20099;-79
2022/04/23 12:17:57;;;;;;;11.00;8.50;;;17.20;99.90;;;;;;5014332;28;20022;-79
2022/04/23 12:20:24;;;;;;;10.50;8.63;;;17.30;99.90;;;;;;5014766;28;20033;-79
2022/04/23 12:23:01;;;;;;;9.38;7.95;;;17.30;99.90;;;;;;5014576;28;20041;-79
2022/04/23 12:25:29;;;;;;;12.80;10.65;;;17.40;99.90;;;;;;5014581;28;20096;-79
2022/04/23 12:42:05;;;;;;;10.63;9.23;;;17.70;99.90;;;;;;4996343;28;20386;-81
2022/04/23 12:44:37;;;;;;;8.68;7.75;;;17.70;99.90;;;;;;4996094;28;20065;-80
2022/04/23 12:47:04;;;;;;;10.68;8.38;;;17.90;99.90;;;;;;4996466;28;20097;-81
2022/04/23 12:50:00;;;;;;;10.85;9.00;;;18.00;99.90;;;;;;4995884;28;20105;-80
2022/04/23 12:52:29;;;;;;;7.95;6.35;;;17.70;99.90;;;;;;5013565;28;20022;-81
2022/04/23 12:55:22;;;;;;;7.93;6.85;;;17.70;99.90;;;;;;5013901;28;20025;-81
2022/04/23 12:57:50;;;;;;;9.93;7.65;;;17.70;99.90;;;;;;5004726;28;20072;-81
2022/04/23 13:00:23;;;;;;;10.50;8.45;;;17.90;99.90;;;;;;5014062;28;20030;-80
2022/04/23 13:02:57;;;;;;;9.55;7.85;;;18.10;99.90;;;;;;5013576;28;20030;-80
2022/04/23 13:05:23;;;;;;;8.30;6.97;;;17.90;99.90;;;;;;5013964;28;20025;-80
2022/04/23 13:10:34;;;;;;;9.45;7.85;;;18.00;99.90;;;;;;5013805;28;20097;-81
2022/04/23 13:13:00;;;;;;;10.13;7.93;;;17.70;99.90;;;;;;5015369;28;20026;-81
2022/04/23 13:15:26;;;;;;;8.10;6.90;;;17.50;99.90;;;;;;5028496;28;20041;-81
2022/04/23 13:17:52;;;;;;;9.82;8.32;;;17.90;99.90;;;;;;5034965;28;20022;-81
2022/04/23 13:20:21;;;;;;;9.27;6.93;;;18.10;99.90;;;;;;5016928;28;20183;-81
2022/04/23 13:22:47;;;;;;;8.48;7.38;;;17.80;99.90;;;;;;5034623;28;20496;-81
2022/04/23 13:25:16;;;;;;;9.55;6.80;;;17.60;99.90;;;;;;5034544;28;20036;-80
2022/04/23 13:27:42;;;;;;;12.00;8.73;;;17.40;99.90;;;;;;5034570;28;20032;-81
2022/04/23 13:30:10;;;;;;;10.65;8.25;;;17.70;99.90;;;;;;5033374;28;20174;-80